Weather at Centre Hospitalier Heliport

Public forecast

Using degrees Celsius for public forecast. Weather courtesy of forecast.io.

Closest aviation weather report (METAR) to Centre Hospitalier Heliport

Closest report is Chambéry-Savoie Airport, 29.1 nm (53.8 km) WNW. Retrieved 2020/09/19 09:30 UTC (0 seconds ago):

LFLB 190930Z AUTO 01008KT CAVOK 23/19 Q1018 NOSIG

Closest aviation forecast (TAF) to Centre Hospitalier Heliport

Closest forecast is Chambéry-Savoie Airport, 29.1 nm (53.8 km) WNW. Retrieved 2020/09/19 06:26 UTC (3 hours ago):

TAF LFLB 190500Z 1906/2006 VRB05KT CAVOK PROB40 TEMPO 1906/1908 4000 BR BKN040 BKN090 PROB40 TEMPO 1912/1920 VRB15G30KT 2000 TSRA BKN070CB